Time;durP1;ratioP1;P1;durP2;ratioP2;P2;SDS_P1;SDS_P2;PMS_P1;PMS_P2;Temp;Humidity;BMP_temperature;BMP_pressure;BME280_temperature;BME280_humidity;BME280_pressure;Samples;Min_cycle;Max_cycle;Signal;HPM_P1;HPM_P2
2023/10/14 00:00:41;;;;;;;6.70;2.08;;;;;;;;;;5106157;28;20012;-73
2023/10/14 00:05:52;;;;;;;5.63;1.40;;;;;;;;;;5100453;28;20042;-72
2023/10/14 00:08:18;;;;;;;8.70;1.58;;;;;;;;;;5092608;28;20031;-71
2023/10/14 00:10:44;;;;;;;6.10;1.50;;;;;;;;;;5092495;28;20028;-71
2023/10/14 00:13:12;;;;;;;5.53;1.30;;;;;;;;;;5092385;28;20056;-72
2023/10/14 00:15:41;;;;;;;1.88;0.93;;;;;;;;;;5092348;28;20027;-70
2023/10/14 00:18:07;;;;;;;5.63;1.35;;;;;;;;;;5092596;28;20020;-73
2023/10/14 00:20:36;;;;;;;10.30;1.40;;;;;;;;;;5092280;28;20046;-73
2023/10/14 00:23:05;;;;;;;6.40;1.55;;;;;;;;;;5092674;28;20024;-71
2023/10/14 00:25:33;;;;;;;5.35;1.30;;;;;;;;;;5091996;28;20493;-72
2023/10/14 00:28:06;;;;;;;5.85;1.13;;;;;;;;;;5090671;28;20024;-71
2023/10/14 00:30:32;;;;;;;5.88;1.45;;;;;;;;;;5091949;28;20089;-72
2023/10/14 00:32:58;;;;;;;4.47;1.30;;;;;;;;;;5091710;28;20040;-70
2023/10/14 00:35:26;;;;;;;8.25;1.77;;;;;;;;;;5092001;28;20425;-71
2023/10/14 00:37:53;;;;;;;8.90;1.65;;;;;;;;;;5092027;28;20050;-69
2023/10/14 00:40:22;;;;;;;8.25;1.65;;;;;;;;;;5091951;28;20031;-72
2023/10/14 00:42:50;;;;;;;10.05;1.83;;;;;;;;;;5091880;28;20099;-71
2023/10/14 00:45:20;;;;;;;7.38;1.75;;;;;;;;;;5092010;28;20020;-70
2023/10/14 00:47:47;;;;;;;14.93;2.08;;;;;;;;;;5091823;28;20483;-71
2023/10/14 00:50:27;;;;;;;8.82;1.83;;;;;;;;;;5091556;28;20028;-71
2023/10/14 00:53:00;;;;;;;13.65;2.20;;;;;;;;;;5091596;28;20028;-72
2023/10/14 00:58:12;;;;;;;17.70;2.72;;;;;;;;;;5091898;28;20476;-72
2023/10/14 01:00:57;;;;;;;12.88;2.22;;;;;;;;;;5091443;28;20027;-71
2023/10/14 01:03:23;;;;;;;;;;;;;;;;;;5092133;28;20036;-71
2023/10/14 01:05:49;;;;;;;9.52;1.60;;;;;;;;;;5092274;28;19949;-72
2023/10/14 01:08:15;;;;;;;12.85;1.88;;;;;;;;;;5092783;28;20032;-72
2023/10/14 01:10:42;;;;;;;12.13;2.20;;;;;;;;;;5095454;28;20085;-71
2023/10/14 01:13:14;;;;;;;12.95;2.03;;;;;;;;;;5095651;28;20471;-72
2023/10/14 01:15:48;;;;;;;10.93;1.52;;;;;;;;;;5096069;28;20028;-72
2023/10/14 01:18:14;;;;;;;9.35;2.05;;;;;;;;;;5102647;28;20066;-72
2023/10/14 01:20:43;;;;;;;14.02;1.80;;;;;;;;;;5101828;28;20027;-72
2023/10/14 01:23:16;;;;;;;10.57;1.73;;;;;;;;;;5096203;28;20024;-72
2023/10/14 01:25:51;;;;;;;15.23;2.05;;;;;;;;;;5095951;28;20043;-72
2023/10/14 01:28:58;;;;;;;18.20;2.30;;;;;;;;;;5094399;28;20483;-70
2023/10/14 01:33:55;;;;;;;17.38;2.75;;;;;;;;;;5095030;28;20040;-71
2023/10/14 01:36:24;;;;;;;16.52;2.47;;;;;;;;;;5094918;28;20347;-70
2023/10/14 01:38:58;;;;;;;12.57;2.38;;;;;;;;;;5094734;28;20074;-71
2023/10/14 01:41:24;;;;;;;16.60;2.33;;;;;;;;;;5094883;28;20031;-71
2023/10/14 01:43:52;;;;;;;14.73;2.25;;;;;;;;;;5095005;28;20024;-71
2023/10/14 01:46:18;;;;;;;20.63;2.78;;;;;;;;;;5094542;28;20052;-70
2023/10/14 01:48:51;;;;;;;19.60;2.50;;;;;;;;;;5094646;28;20020;-70
2023/10/14 01:51:19;;;;;;;16.15;2.03;;;;;;;;;;5094671;28;20019;-70
2023/10/14 01:53:45;;;;;;;13.32;2.20;;;;;;;;;;5094936;28;20480;-70
2023/10/14 01:56:11;;;;;;;25.63;3.25;;;;;;;;;;5095083;28;20031;-72
2023/10/14 01:58:37;;;;;;;17.75;2.42;;;;;;;;;;5095209;28;20031;-73
2023/10/14 02:03:50;;;;;;;20.08;2.00;;;;;;;;;;5096292;28;20020;-72
2023/10/14 02:06:18;;;;;;;18.50;2.15;;;;;;;;;;5095804;28;20036;-71
2023/10/14 02:08:45;;;;;;;14.05;1.88;;;;;;;;;;5095191;28;20031;-73
2023/10/14 02:11:11;;;;;;;14.27;2.25;;;;;;;;;;5094992;28;20433;-70
2023/10/14 02:13:37;;;;;;;12.38;2.13;;;;;;;;;;5094918;28;20365;-71
2023/10/14 02:16:07;;;;;;;17.42;2.03;;;;;;;;;;5094888;28;20031;-70
2023/10/14 02:18:36;;;;;;;19.50;2.00;;;;;;;;;;5094754;28;20016;-71
2023/10/14 02:21:06;;;;;;;14.68;2.10;;;;;;;;;;5094247;28;20032;-70
2023/10/14 02:23:43;;;;;;;10.80;1.55;;;;;;;;;;5094002;28;20055;-71
2023/10/14 02:26:33;;;;;;;11.63;2.63;;;;;;;;;;5093968;28;20112;-71
2023/10/14 02:28:59;;;;;;;11.63;1.88;;;;;;;;;;5094580;28;20020;-71
2023/10/14 02:31:35;;;;;;;10.23;1.58;;;;;;;;;;5093862;28;20081;-71
2023/10/14 02:34:08;;;;;;;7.72;1.50;;;;;;;;;;5094786;28;20028;-72
2023/10/14 02:36:35;;;;;;;20.48;2.22;;;;;;;;;;5094522;28;20434;-72
2023/10/14 02:39:03;;;;;;;14.15;2.05;;;;;;;;;;5094067;28;20102;-71
2023/10/14 02:41:32;;;;;;;8.95;1.75;;;;;;;;;;5094274;28;20491;-70
2023/10/14 02:44:28;;;;;;;11.38;1.65;;;;;;;;;;5093995;28;20491;-71
2023/10/14 02:46:54;;;;;;;20.50;1.60;;;;;;;;;;5093917;28;20032;-71
2023/10/14 02:49:24;;;;;;;10.82;1.80;;;;;;;;;;5093296;28;20028;-71
2023/10/14 02:51:52;;;;;;;7.38;1.55;;;;;;;;;;5093355;28;20441;-71
2023/10/14 02:54:28;;;;;;;14.63;1.98;;;;;;;;;;5091192;28;20024;-71
2023/10/14 02:56:59;;;;;;;9.32;1.58;;;;;;;;;;5093339;28;20027;-71
2023/10/14 03:02:26;;;;;;;15.68;2.05;;;;;;;;;;5047760;28;20024;-71
2023/10/14 03:07:25;;;;;;;8.63;1.45;;;;;;;;;;5093595;28;20032;-71
2023/10/14 03:09:52;;;;;;;12.55;2.30;;;;;;;;;;5091581;28;20047;-71
2023/10/14 03:12:21;;;;;;;12.55;1.80;;;;;;;;;;5092998;28;20150;-71
2023/10/14 03:14:52;;;;;;;15.27;2.10;;;;;;;;;;5093250;28;20111;-71
2023/10/14 03:17:24;;;;;;;13.40;2.30;;;;;;;;;;5093668;28;20024;-70
2023/10/14 03:19:53;;;;;;;10.65;2.45;;;;;;;;;;5092069;28;20020;-71
2023/10/14 03:22:22;;;;;;;10.98;1.73;;;;;;;;;;5092662;28;20031;-72
2023/10/14 03:24:49;;;;;;;12.95;2.67;;;;;;;;;;5091576;28;20487;-73
2023/10/14 03:27:15;;;;;;;14.48;3.40;;;;;;;;;;5094052;28;20227;-73
2023/10/14 03:29:46;;;;;;;14.52;2.25;;;;;;;;;;5095973;28;20016;-71
2023/10/14 03:32:12;;;;;;;13.40;2.17;;;;;;;;;;5095971;28;20039;-71
2023/10/14 03:34:43;;;;;;;18.60;2.50;;;;;;;;;;5091562;28;20020;-71
2023/10/14 03:37:25;;;;;;;11.40;2.15;;;;;;;;;;5097784;28;20059;-72
2023/10/14 03:42:42;;;;;;;;;;;;;;;;;;5092511;28;20098;-70
2023/10/14 03:45:20;;;;;;;15.30;2.38;;;;;;;;;;5091877;28;19904;-70
2023/10/14 03:47:51;;;;;;;17.58;2.50;;;;;;;;;;5091732;28;20020;-70
2023/10/14 03:50:23;;;;;;;15.13;2.42;;;;;;;;;;5073244;28;20119;-70
2023/10/14 03:52:49;;;;;;;11.60;2.15;;;;;;;;;;5091204;28;20081;-72
2023/10/14 03:55:19;;;;;;;13.98;2.30;;;;;;;;;;5091211;28;20442;-71
2023/10/14 03:57:45;;;;;;;20.08;3.00;;;;;;;;;;5091028;28;20016;-70
2023/10/14 04:00:25;;;;;;;24.33;2.65;;;;;;;;;;5091263;28;20027;-71
2023/10/14 04:02:51;;;;;;;15.73;2.85;;;;;;;;;;5091128;28;20020;-71
2023/10/14 04:05:19;;;;;;;15.98;2.35;;;;;;;;;;5091138;28;20024;-71
2023/10/14 04:07:45;;;;;;;17.38;2.72;;;;;;;;;;5092096;28;20030;-71
2023/10/14 04:10:11;;;;;;;16.55;2.75;;;;;;;;;;5091909;28;20027;-70
2023/10/14 04:12:40;;;;;;;13.70;2.42;;;;;;;;;;5091956;28;20028;-71
2023/10/14 04:15:33;;;;;;;17.13;2.53;;;;;;;;;;5092037;28;20438;-72
2023/10/14 04:17:55;;;;;;;18.25;2.40;;;;;;;;;;5091703;28;20186;-71
2023/10/14 04:20:32;;;;;;;15.13;2.92;;;;;;;;;;5091243;28;20016;-72
2023/10/14 04:23:05;;;;;;;19.20;2.50;;;;;;;;;;5092235;28;20567;-73
2023/10/14 04:25:39;;;;;;;20.23;2.55;;;;;;;;;;5088565;28;20028;-75
2023/10/14 04:30:44;;;;;;;18.13;2.58;;;;;;;;;;5091542;28;20437;-75
2023/10/14 04:33:34;;;;;;;24.98;2.60;;;;;;;;;;5096356;28;20102;-74
2023/10/14 04:38:42;;;;;;;26.50;3.25;;;;;;;;;;5086949;28;20021;-71
2023/10/14 04:41:14;;;;;;;16.95;2.42;;;;;;;;;;5092549;28;20047;-74
2023/10/14 04:44:00;;;;;;;23.30;2.80;;;;;;;;;;5093653;28;20024;-71
2023/10/14 04:46:32;;;;;;;18.60;2.85;;;;;;;;;;5097972;28;20462;-71
2023/10/14 04:48:59;;;;;;;13.73;2.30;;;;;;;;;;5096325;28;20023;-71
2023/10/14 04:51:36;;;;;;;20.60;2.92;;;;;;;;;;5095817;28;20016;-71
2023/10/14 04:54:02;;;;;;;16.38;2.88;;;;;;;;;;5095720;28;20055;-71
2023/10/14 04:56:33;;;;;;;23.15;3.13;;;;;;;;;;5095715;28;20540;-70
2023/10/14 04:58:59;;;;;;;22.52;2.80;;;;;;;;;;5095768;28;20032;-72
2023/10/14 05:01:27;;;;;;;23.23;3.03;;;;;;;;;;5095429;28;20024;-71
2023/10/14 05:03:56;;;;;;;28.65;3.60;;;;;;;;;;5095455;28;20024;-72
2023/10/14 05:06:23;;;;;;;29.15;3.72;;;;;;;;;;5095433;28;20023;-71
2023/10/14 05:08:51;;;;;;;27.48;2.90;;;;;;;;;;5095741;28;20103;-73
2023/10/14 05:11:19;;;;;;;29.70;3.50;;;;;;;;;;5088904;28;20013;-71
2023/10/14 05:14:06;;;;;;;18.77;2.63;;;;;;;;;;5092495;28;20024;-75
2023/10/14 05:16:49;;;;;;;23.83;3.35;;;;;;;;;;5095365;28;20020;-72
2023/10/14 05:19:23;;;;;;;22.08;2.75;;;;;;;;;;5092756;28;20052;-72
2023/10/14 05:21:55;;;;;;;19.00;3.13;;;;;;;;;;5099528;28;20024;-74
2023/10/14 05:24:28;;;;;;;19.08;2.60;;;;;;;;;;5085131;28;20024;-71
2023/10/14 05:26:59;;;;;;;26.58;3.63;;;;;;;;;;5090473;28;20027;-73
2023/10/14 05:29:26;;;;;;;19.88;2.63;;;;;;;;;;5097180;28;20053;-72
2023/10/14 05:31:52;;;;;;;16.08;2.92;;;;;;;;;;5098291;28;20131;-71
2023/10/14 05:34:24;;;;;;;16.83;2.40;;;;;;;;;;5091071;28;20099;-72
2023/10/14 05:36:52;;;;;;;28.70;4.32;;;;;;;;;;5093911;28;20012;-71
2023/10/14 05:39:20;;;;;;;16.85;2.53;;;;;;;;;;5094552;28;20012;-71
2023/10/14 05:41:48;;;;;;;24.63;3.05;;;;;;;;;;5096288;28;20507;-71
2023/10/14 05:44:14;;;;;;;19.52;2.58;;;;;;;;;;5091080;28;20039;-72
2023/10/14 05:46:41;;;;;;;20.55;2.97;;;;;;;;;;5092893;28;20024;-73
2023/10/14 05:49:07;;;;;;;24.65;3.08;;;;;;;;;;5094676;28;20024;-71
2023/10/14 05:51:33;;;;;;;23.73;3.58;;;;;;;;;;5097237;28;20028;-71
2023/10/14 05:53:59;;;;;;;25.77;3.40;;;;;;;;;;5089158;28;20027;-71
2023/10/14 05:56:28;;;;;;;18.33;2.90;;;;;;;;;;5093840;28;20028;-71
2023/10/14 05:58:54;;;;;;;29.52;2.88;;;;;;;;;;5094778;28;20023;-70
2023/10/14 06:01:20;;;;;;;23.38;3.08;;;;;;;;;;5092964;28;20013;-70
2023/10/14 06:03:46;;;;;;;19.23;3.20;;;;;;;;;;5099025;28;20498;-69
2023/10/14 06:06:16;;;;;;;28.60;3.88;;;;;;;;;;5103323;28;20024;-71
2023/10/14 06:08:46;;;;;;;28.52;3.20;;;;;;;;;;5109878;28;20020;-70
2023/10/14 06:11:12;;;;;;;22.88;3.03;;;;;;;;;;5114512;28;20012;-71
2023/10/14 06:13:38;;;;;;;21.33;3.15;;;;;;;;;;5114456;28;20426;-72
2023/10/14 06:16:09;;;;;;;27.08;3.72;;;;;;;;;;5114569;28;20024;-72
2023/10/14 06:18:35;;;;;;;31.38;4.35;;;;;;;;;;5114586;28;20117;-72
2023/10/14 06:21:02;;;;;;;23.83;3.22;;;;;;;;;;5114799;28;20059;-72
2023/10/14 06:23:28;;;;;;;22.58;3.15;;;;;;;;;;5114206;28;20064;-75
2023/10/14 06:25:55;;;;;;;29.00;3.50;;;;;;;;;;5114439;28;20024;-74
2023/10/14 06:28:20;;;;;;;27.05;3.63;;;;;;;;;;5114039;28;20549;-73
2023/10/14 06:30:46;;;;;;;23.95;3.70;;;;;;;;;;5114445;28;20032;-74
2023/10/14 06:33:12;;;;;;;21.90;2.70;;;;;;;;;;5114657;28;20391;-77
2023/10/14 06:35:46;;;;;;;24.83;3.42;;;;;;;;;;5095745;28;20039;-70
2023/10/14 06:38:17;;;;;;;18.75;3.65;;;;;;;;;;5093883;28;20017;-73
2023/10/14 06:40:44;;;;;;;24.48;2.90;;;;;;;;;;5093620;28;20023;-72
2023/10/14 06:43:10;;;;;;;21.42;2.92;;;;;;;;;;5092480;28;20024;-70
2023/10/14 06:45:37;;;;;;;33.42;4.05;;;;;;;;;;5091954;28;20089;-70
2023/10/14 06:48:04;;;;;;;25.42;2.92;;;;;;;;;;5093743;28;20101;-72
2023/10/14 06:50:31;;;;;;;30.25;3.30;;;;;;;;;;5093698;28;20491;-70
2023/10/14 06:53:00;;;;;;;25.25;3.67;;;;;;;;;;5092861;28;20035;-70
2023/10/14 06:55:27;;;;;;;22.63;3.15;;;;;;;;;;5093507;28;20028;-71
2023/10/14 06:57:56;;;;;;;22.52;3.15;;;;;;;;;;5093679;28;20097;-71
2023/10/14 07:00:26;;;;;;;19.73;3.28;;;;;;;;;;5093165;28;20024;-70
2023/10/14 07:02:55;;;;;;;20.60;3.03;;;;;;;;;;5074564;28;20046;-72
2023/10/14 07:05:21;;;;;;;26.88;3.22;;;;;;;;;;5093109;28;20475;-71
2023/10/14 07:07:48;;;;;;;23.17;3.38;;;;;;;;;;5093007;28;20024;-69
2023/10/14 07:10:14;;;;;;;24.25;3.40;;;;;;;;;;5093575;28;20028;-73
2023/10/14 07:12:40;;;;;;;23.92;3.63;;;;;;;;;;5092892;28;20542;-70
2023/10/14 07:15:12;;;;;;;27.17;2.95;;;;;;;;;;5092670;28;20052;-71
2023/10/14 07:17:42;;;;;;;27.23;3.30;;;;;;;;;;5092482;28;20031;-70
2023/10/14 07:20:12;;;;;;;25.75;3.97;;;;;;;;;;5091977;28;20066;-70
2023/10/14 07:22:42;;;;;;;19.40;3.10;;;;;;;;;;5091664;28;20036;-69
2023/10/14 07:25:09;;;;;;;18.60;3.25;;;;;;;;;;5092908;28;20022;-69
2023/10/14 07:27:35;;;;;;;27.80;3.15;;;;;;;;;;5092628;28;20020;-69
2023/10/14 07:30:13;;;;;;;24.50;3.42;;;;;;;;;;5092443;28;20111;-70
2023/10/14 07:32:39;;;;;;;35.28;3.75;;;;;;;;;;5092339;28;20119;-70
2023/10/14 07:35:06;;;;;;;23.85;2.95;;;;;;;;;;5092576;28;20036;-71
2023/10/14 07:37:33;;;;;;;26.17;3.35;;;;;;;;;;5092715;28;20040;-70
2023/10/14 07:40:04;;;;;;;24.05;2.90;;;;;;;;;;5092407;28;20024;-71
2023/10/14 07:42:30;;;;;;;27.85;4.43;;;;;;;;;;5092334;28;20064;-71
2023/10/14 07:44:56;;;;;;;25.02;4.07;;;;;;;;;;5074601;28;20032;-72
2023/10/14 07:47:24;;;;;;;24.58;2.85;;;;;;;;;;5092371;28;20024;-71
2023/10/14 07:49:50;;;;;;;38.05;4.18;;;;;;;;;;5091954;28;20020;-70
2023/10/14 07:52:17;;;;;;;15.75;3.17;;;;;;;;;;5092155;28;20016;-70
2023/10/14 07:54:43;;;;;;;18.30;2.95;;;;;;;;;;5092304;28;20099;-71
2023/10/14 07:57:12;;;;;;;17.38;3.15;;;;;;;;;;5090511;28;20487;-71
2023/10/14 07:59:38;;;;;;;20.40;3.78;;;;;;;;;;5091534;28;20027;-70
2023/10/14 08:02:07;;;;;;;25.83;4.53;;;;;;;;;;5091477;28;20495;-71
2023/10/14 08:04:33;;;;;;;23.50;3.28;;;;;;;;;;5091772;28;20028;-69
2023/10/14 08:07:00;;;;;;;17.67;3.35;;;;;;;;;;5091858;28;20105;-71
2023/10/14 08:09:28;;;;;;;21.38;3.92;;;;;;;;;;5091962;28;20395;-71
2023/10/14 08:11:54;;;;;;;24.52;4.35;;;;;;;;;;5091749;28;20048;-72
2023/10/14 08:14:20;;;;;;;28.15;4.45;;;;;;;;;;5092007;28;20027;-71
2023/10/14 08:16:47;;;;;;;31.58;5.97;;;;;;;;;;5091622;28;20024;-71
2023/10/14 08:19:14;;;;;;;23.38;4.18;;;;;;;;;;5091514;28;20069;-71
2023/10/14 08:21:40;;;;;;;20.00;3.80;;;;;;;;;;5074494;28;20028;-71
2023/10/14 08:24:06;;;;;;;17.23;3.22;;;;;;;;;;5074963;28;20039;-72
2023/10/14 08:26:34;;;;;;;25.55;5.40;;;;;;;;;;5092744;28;20024;-72
2023/10/14 08:29:00;;;;;;;20.35;3.38;;;;;;;;;;5053693;28;20476;-71
2023/10/14 08:31:27;;;;;;;22.25;4.45;;;;;;;;;;5071219;28;20025;-70
2023/10/14 08:33:53;;;;;;;21.23;4.40;;;;;;;;;;5088443;28;20115;-72
2023/10/14 08:36:19;;;;;;;14.32;2.47;;;;;;;;;;5090951;28;20016;-70
2023/10/14 08:38:47;;;;;;;21.73;4.07;;;;;;;;;;5091053;28;20422;-72
2023/10/14 08:41:16;;;;;;;21.20;3.28;;;;;;;;;;5092679;28;20038;-72
2023/10/14 08:43:49;;;;;;;20.25;2.85;;;;;;;;;;5092580;28;20099;-73
2023/10/14 08:46:17;;;;;;;22.15;2.83;;;;;;;;;;5093018;28;20042;-72
2023/10/14 08:48:44;;;;;;;22.00;4.13;;;;;;;;;;5092386;28;20031;-73
2023/10/14 08:51:11;;;;;;;19.95;3.20;;;;;;;;;;5092656;28;20150;-72
2023/10/14 08:53:40;;;;;;;22.50;4.15;;;;;;;;;;5091414;28;20609;-72
2023/10/14 08:56:07;;;;;;;21.85;3.67;;;;;;;;;;5091566;28;20028;-71
2023/10/14 08:58:38;;;;;;;25.27;3.10;;;;;;;;;;5091260;28;20028;-71
2023/10/14 09:01:06;;;;;;;18.95;3.45;;;;;;;;;;5073301;28;20025;-70
2023/10/14 09:03:32;;;;;;;27.42;3.65;;;;;;;;;;5091524;28;20028;-71
2023/10/14 09:05:58;;;;;;;19.73;3.13;;;;;;;;;;5091870;28;20031;-71
2023/10/14 09:08:25;;;;;;;22.98;3.47;;;;;;;;;;5093395;28;20024;-71
2023/10/14 09:10:51;;;;;;;17.67;3.00;;;;;;;;;;5092473;28;20518;-73
2023/10/14 09:13:20;;;;;;;13.27;2.75;;;;;;;;;;5073546;28;20036;-71
2023/10/14 09:15:47;;;;;;;16.35;3.30;;;;;;;;;;5091461;28;20047;-70
2023/10/14 09:18:17;;;;;;;20.60;3.25;;;;;;;;;;5074288;28;20485;-73
2023/10/14 09:20:43;;;;;;;16.85;3.58;;;;;;;;;;5091171;28;20024;-71
2023/10/14 09:23:17;;;;;;;19.58;3.42;;;;;;;;;;5091118;28;20024;-69
2023/10/14 09:25:55;;;;;;;18.80;3.13;;;;;;;;;;5091536;28;20020;-76
2023/10/14 09:28:22;;;;;;;20.88;3.40;;;;;;;;;;5091125;28;20029;-76
2023/10/14 09:30:51;;;;;;;23.67;4.18;;;;;;;;;;5093877;28;20077;-78
2023/10/14 09:33:27;;;;;;;20.13;3.40;;;;;;;;;;5095030;28;20036;-73
2023/10/14 09:35:54;;;;;;;17.65;2.78;;;;;;;;;;5094865;28;20016;-73
2023/10/14 09:38:22;;;;;;;16.45;2.88;;;;;;;;;;5095676;28;20031;-72
2023/10/14 09:40:52;;;;;;;12.88;2.58;;;;;;;;;;5097045;28;20103;-72
2023/10/14 09:43:20;;;;;;;17.42;2.97;;;;;;;;;;5078543;28;20061;-72
2023/10/14 09:45:47;;;;;;;20.02;2.75;;;;;;;;;;5096257;28;20084;-71
2023/10/14 09:48:15;;;;;;;15.85;3.92;;;;;;;;;;5096357;28;20076;-71
2023/10/14 09:50:42;;;;;;;21.52;4.72;;;;;;;;;;5079227;28;20547;-71
2023/10/14 09:53:12;;;;;;;17.15;2.83;;;;;;;;;;5095917;28;20039;-71
2023/10/14 09:55:39;;;;;;;12.13;2.75;;;;;;;;;;5096974;28;20020;-71
2023/10/14 09:58:07;;;;;;;16.08;3.13;;;;;;;;;;5094104;28;20031;-71
2023/10/14 10:00:33;;;;;;;14.02;2.58;;;;;;;;;;5093839;28;20024;-71
2023/10/14 10:03:02;;;;;;;12.25;2.25;;;;;;;;;;5094240;28;20030;-71
2023/10/14 10:05:36;;;;;;;14.95;2.40;;;;;;;;;;5094658;28;20093;-72
2023/10/14 10:08:09;;;;;;;12.45;2.67;;;;;;;;;;5094597;28;20031;-69
2023/10/14 10:10:36;;;;;;;8.52;1.85;;;;;;;;;;5089966;28;20404;-72
2023/10/14 10:13:02;;;;;;;10.15;1.90;;;;;;;;;;5074192;28;20036;-71
2023/10/14 10:15:35;;;;;;;8.60;1.60;;;;;;;;;;5075277;28;20032;-70
2023/10/14 10:18:05;;;;;;;9.50;1.73;;;;;;;;;;5057149;28;20638;-71
2023/10/14 10:20:35;;;;;;;13.60;2.17;;;;;;;;;;5076790;28;20027;-73
2023/10/14 10:23:01;;;;;;;7.70;1.42;;;;;;;;;;5077369;28;20078;-71
2023/10/14 10:25:37;;;;;;;13.60;2.55;;;;;;;;;;5075045;28;20383;-72
2023/10/14 10:28:34;;;;;;;9.52;2.00;;;;;;;;;;5074156;28;20086;-71
2023/10/14 10:31:09;;;;;;;10.02;2.03;;;;;;;;;;5069534;28;20067;-71
2023/10/14 10:33:36;;;;;;;;;;;;;;;;;;5074252;28;20041;-71
2023/10/14 10:36:07;;;;;;;7.03;1.48;;;;;;;;;;5073773;28;19904;-71
2023/10/14 10:38:36;;;;;;;4.10;1.50;;;;;;;;;;5074955;28;20074;-71
2023/10/14 10:41:23;;;;;;;6.65;1.80;;;;;;;;;;5075289;28;20025;-73
2023/10/14 10:43:50;;;;;;;5.70;1.38;;;;;;;;;;5075333;28;20020;-73
2023/10/14 10:46:40;;;;;;;3.97;1.38;;;;;;;;;;5075707;28;20048;-73
2023/10/14 10:49:07;;;;;;;100.15;64.78;;;;;;;;;;5079496;28;20034;-71
2023/10/14 10:51:34;;;;;;;10.75;2.47;;;;;;;;;;5077438;28;20050;-72
2023/10/14 10:54:00;;;;;;;6.85;1.60;;;;;;;;;;5077835;28;20017;-71
2023/10/14 10:56:30;;;;;;;6.13;1.40;;;;;;;;;;5077744;28;20016;-72
2023/10/14 10:59:04;;;;;;;8.07;1.80;;;;;;;;;;5080367;28;20052;-73
2023/10/14 11:01:31;;;;;;;11.13;3.17;;;;;;;;;;5078795;28;20021;-72
2023/10/14 11:03:58;;;;;;;7.05;2.13;;;;;;;;;;5075219;28;20773;-71
2023/10/14 11:06:25;;;;;;;12.88;2.75;;;;;;;;;;5077283;28;20111;-73
2023/10/14 11:08:52;;;;;;;13.85;2.05;;;;;;;;;;5079400;28;20652;-72
2023/10/14 11:11:20;;;;;;;7.53;1.90;;;;;;;;;;5075173;28;20051;-71
2023/10/14 11:13:46;;;;;;;7.15;1.85;;;;;;;;;;5078272;28;20356;-72
2023/10/14 11:16:12;;;;;;;6.22;1.67;;;;;;;;;;5078237;28;20028;-72
2023/10/14 11:18:48;;;;;;;8.27;2.45;;;;;;;;;;5080286;28;20016;-72
2023/10/14 11:21:15;;;;;;;7.68;1.98;;;;;;;;;;5080702;28;20093;-73
2023/10/14 11:23:42;;;;;;;11.10;2.97;;;;;;;;;;5078208;28;20491;-73
2023/10/14 11:26:12;;;;;;;7.00;2.08;;;;;;;;;;5078221;28;20157;-72
2023/10/14 11:28:39;;;;;;;9.07;2.20;;;;;;;;;;5082200;28;20056;-75
2023/10/14 11:31:07;;;;;;;10.20;2.63;;;;;;;;;;5083692;28;20024;-73
2023/10/14 11:33:35;;;;;;;9.75;2.15;;;;;;;;;;5078694;28;20027;-70
2023/10/14 11:36:02;;;;;;;5.57;1.55;;;;;;;;;;5080140;28;20035;-70
2023/10/14 11:38:30;;;;;;;11.07;2.63;;;;;;;;;;5084916;28;20031;-70
2023/10/14 11:40:58;;;;;;;12.77;2.33;;;;;;;;;;5072034;28;20029;-72
2023/10/14 11:43:24;;;;;;;14.32;1.95;;;;;;;;;;5072020;28;20099;-71
2023/10/14 11:45:52;;;;;;;10.82;2.05;;;;;;;;;;5072780;28;20029;-72
2023/10/14 11:48:33;;;;;;;11.45;2.38;;;;;;;;;;5072892;28;20025;-71
2023/10/14 11:51:00;;;;;;;10.13;1.73;;;;;;;;;;5071772;28;20129;-70
2023/10/14 11:53:27;;;;;;;10.32;1.77;;;;;;;;;;5071122;28;20190;-72
2023/10/14 11:56:00;;;;;;;9.60;2.25;;;;;;;;;;5072035;28;20430;-71
2023/10/14 11:58:27;;;;;;;5.68;1.60;;;;;;;;;;5074521;28;20029;-75
2023/10/14 12:00:54;;;;;;;10.48;2.60;;;;;;;;;;5081386;28;20103;-77
2023/10/14 12:03:19;;;;;;;10.32;1.75;;;;;;;;;;5083288;28;20028;-72
2023/10/14 12:05:46;;;;;;;9.73;1.95;;;;;;;;;;5071888;28;20032;-72
2023/10/14 12:08:12;;;;;;;9.25;2.05;;;;;;;;;;5095613;28;20487;-72
2023/10/14 12:10:38;;;;;;;10.73;1.63;;;;;;;;;;5094066;28;20146;-74
2023/10/14 12:13:04;;;;;;;10.57;2.10;;;;;;;;;;5092244;28;20111;-74
2023/10/14 12:15:35;;;;;;;8.07;1.63;;;;;;;;;;5091723;28;20031;-72
2023/10/14 12:18:01;;;;;;;8.48;2.17;;;;;;;;;;5091966;28;20413;-73
2023/10/14 12:20:29;;;;;;;10.57;1.80;;;;;;;;;;5091311;28;20024;-75
2023/10/14 12:22:55;;;;;;;6.80;1.73;;;;;;;;;;5091843;28;20059;-74
2023/10/14 12:25:21;;;;;;;12.45;2.95;;;;;;;;;;5091588;28;20116;-73
2023/10/14 12:27:48;;;;;;;17.02;2.35;;;;;;;;;;5098304;28;20510;-73
2023/10/14 12:33:04;;;;;;;12.63;2.58;;;;;;;;;;5091402;28;20112;-72
2023/10/14 12:35:32;;;;;;;13.20;2.60;;;;;;;;;;5093251;28;20020;-72
2023/10/14 12:37:59;;;;;;;12.65;2.10;;;;;;;;;;5093766;28;20085;-72
2023/10/14 12:40:29;;;;;;;12.23;2.47;;;;;;;;;;5091187;28;20426;-72
2023/10/14 12:43:00;;;;;;;9.90;2.40;;;;;;;;;;5091654;28;20082;-72
2023/10/14 12:45:27;;;;;;;7.80;2.03;;;;;;;;;;5092282;28;20103;-72
2023/10/14 12:47:58;;;;;;;14.57;4.90;;;;;;;;;;5091853;28;20020;-73
2023/10/14 12:50:25;;;;;;;14.38;6.78;;;;;;;;;;5091351;28;20060;-72
2023/10/14 12:52:56;;;;;;;10.77;2.80;;;;;;;;;;5091469;28;20686;-74
2023/10/14 12:55:23;;;;;;;13.02;3.75;;;;;;;;;;5091653;28;20162;-75
2023/10/14 12:57:50;;;;;;;13.45;2.38;;;;;;;;;;5091267;28;20053;-73
2023/10/14 13:00:29;;;;;;;10.77;1.98;;;;;;;;;;5090783;28;20395;-73
2023/10/14 13:02:56;;;;;;;14.65;3.08;;;;;;;;;;5073036;28;20044;-73
2023/10/14 13:05:22;;;;;;;14.52;2.92;;;;;;;;;;5095610;28;20032;-76
2023/10/14 13:07:52;;;;;;;15.05;2.40;;;;;;;;;;5077878;28;20498;-70
2023/10/14 13:10:19;;;;;;;12.00;2.30;;;;;;;;;;5097718;28;20028;-72
2023/10/14 13:12:55;;;;;;;13.57;2.58;;;;;;;;;;5078170;28;20379;-74
2023/10/14 13:15:25;;;;;;;16.35;2.47;;;;;;;;;;5094246;28;20372;-76
2023/10/14 13:17:58;;;;;;;15.55;2.60;;;;;;;;;;5095317;28;20542;-75
2023/10/14 13:20:28;;;;;;;16.48;3.13;;;;;;;;;;5094707;28;20020;-72
2023/10/14 13:22:58;;;;;;;16.77;3.13;;;;;;;;;;5094597;28;20476;-72
2023/10/14 13:25:24;;;;;;;13.75;3.08;;;;;;;;;;5094884;28;20028;-72
2023/10/14 13:27:51;;;;;;;14.45;3.55;;;;;;;;;;5095150;28;20556;-75
2023/10/14 13:30:22;;;;;;;17.02;3.00;;;;;;;;;;5094736;28;20020;-75
2023/10/14 13:32:50;;;;;;;9.48;2.25;;;;;;;;;;5094694;28;20097;-75
2023/10/14 13:35:16;;;;;;;15.68;2.90;;;;;;;;;;5094511;28;20407;-76
2023/10/14 13:37:43;;;;;;;12.88;2.97;;;;;;;;;;5094697;28;20020;-73
2023/10/14 13:40:10;;;;;;;21.52;3.00;;;;;;;;;;5094571;28;20020;-73
2023/10/14 13:42:36;;;;;;;19.92;3.33;;;;;;;;;;5100298;28;20024;-74
2023/10/14 13:45:04;;;;;;;24.40;4.13;;;;;;;;;;5103352;28;20048;-73
2023/10/14 13:47:31;;;;;;;22.88;5.57;;;;;;;;;;5094436;28;20652;-73
2023/10/14 13:49:58;;;;;;;23.77;3.78;;;;;;;;;;5094300;28;20028;-73
2023/10/14 13:52:24;;;;;;;22.80;5.13;;;;;;;;;;5097941;28;20020;-75
2023/10/14 13:54:50;;;;;;;17.40;3.90;;;;;;;;;;5096285;28;20095;-75
2023/10/14 13:57:19;;;;;;;16.92;3.15;;;;;;;;;;5094955;28;20462;-77
2023/10/14 13:59:46;;;;;;;18.92;3.28;;;;;;;;;;5094135;28;20029;-74
2023/10/14 14:02:12;;;;;;;18.60;3.88;;;;;;;;;;5076238;28;20028;-72
2023/10/14 14:04:38;;;;;;;23.92;3.92;;;;;;;;;;5097928;28;20467;-75
2023/10/14 14:07:06;;;;;;;23.70;3.63;;;;;;;;;;5095952;28;20027;-72
2023/10/14 14:09:32;;;;;;;23.35;3.25;;;;;;;;;;5095303;28;20016;-73
2023/10/14 14:11:58;;;;;;;26.15;4.85;;;;;;;;;;5079186;28;20028;-75
2023/10/14 14:14:24;;;;;;;23.88;4.13;;;;;;;;;;5102171;28;20095;-73
2023/10/14 14:16:50;;;;;;;21.60;3.60;;;;;;;;;;5093273;28;20028;-73
2023/10/14 14:19:18;;;;;;;18.65;2.90;;;;;;;;;;5093860;28;20020;-74
2023/10/14 14:21:46;;;;;;;21.83;4.03;;;;;;;;;;5094939;28;20020;-73
2023/10/14 14:24:12;;;;;;;15.50;3.47;;;;;;;;;;5095061;28;20031;-76
2023/10/14 14:26:38;;;;;;;17.38;3.38;;;;;;;;;;5095444;28;20030;-74
2023/10/14 14:29:09;;;;;;;19.00;3.17;;;;;;;;;;5094246;28;20027;-73
2023/10/14 14:31:35;;;;;;;19.10;2.67;;;;;;;;;;5094482;28;20498;-74
2023/10/14 14:34:01;;;;;;;23.13;3.92;;;;;;;;;;5076823;28;20024;-77
2023/10/14 14:36:27;;;;;;;23.55;3.42;;;;;;;;;;5093920;28;20101;-72
2023/10/14 14:38:54;;;;;;;20.10;3.30;;;;;;;;;;5093321;28;20104;-73
2023/10/14 14:41:25;;;;;;;19.40;2.92;;;;;;;;;;5093802;28;20024;-73
2023/10/14 14:43:52;;;;;;;18.10;3.25;;;;;;;;;;5094056;28;20024;-72
2023/10/14 14:46:18;;;;;;;21.02;2.95;;;;;;;;;;5093342;28;20115;-75
2023/10/14 14:48:44;;;;;;;19.73;3.30;;;;;;;;;;5093291;28;20085;-77
2023/10/14 14:51:10;;;;;;;22.48;3.17;;;;;;;;;;5094173;28;20024;-73
2023/10/14 14:53:37;;;;;;;21.67;3.88;;;;;;;;;;5093491;28;20039;-73
2023/10/14 14:56:10;;;;;;;20.80;3.45;;;;;;;;;;5093154;28;20471;-74
2023/10/14 14:58:36;;;;;;;16.58;2.95;;;;;;;;;;5093118;28;20424;-75
2023/10/14 15:01:02;;;;;;;21.38;2.97;;;;;;;;;;5093574;28;20043;-75
2023/10/14 15:03:29;;;;;;;16.45;3.17;;;;;;;;;;5093424;28;20035;-74
2023/10/14 15:05:55;;;;;;;18.35;3.35;;;;;;;;;;5093285;28;20047;-73
2023/10/14 15:08:23;;;;;;;18.60;3.25;;;;;;;;;;5092965;28;20035;-72
2023/10/14 15:10:49;;;;;;;21.55;3.08;;;;;;;;;;5092924;28;20020;-71